createdAt,value
2023-05-12T00:00:20.276Z,12.83
2023-05-12T00:01:20.225Z,12.86
2023-05-12T00:02:20.257Z,12.89
2023-05-12T00:03:21.161Z,12.89
2023-05-12T00:04:23.703Z,12.85
2023-05-12T00:05:19.916Z,12.86
2023-05-12T00:06:19.928Z,12.89
2023-05-12T00:07:20.227Z,12.90
2023-05-12T00:08:19.911Z,12.93
2023-05-12T00:09:19.900Z,12.93
2023-05-12T00:10:22.646Z,12.93
2023-05-12T00:11:21.620Z,12.96
2023-05-12T00:12:21.586Z,12.96
2023-05-12T00:13:20.127Z,12.96
2023-05-12T00:14:22.581Z,12.93
2023-05-12T00:15:22.556Z,12.90
2023-05-12T00:16:21.584Z,12.87
2023-05-12T00:17:20.286Z,12.85
2023-05-12T00:18:22.568Z,12.83
2023-05-12T00:19:19.735Z,12.85
2023-05-12T00:20:20.310Z,12.85
2023-05-12T00:21:23.502Z,12.79
2023-05-12T00:22:19.713Z,12.79
2023-05-12T00:23:19.708Z,12.78
2023-05-12T00:24:19.701Z,12.79
2023-05-12T00:25:19.712Z,12.82
2023-05-12T00:26:19.656Z,12.86
2023-05-12T00:27:19.922Z,12.89
2023-05-12T00:28:19.925Z,12.87
2023-05-12T00:29:19.635Z,12.85
2023-05-12T00:30:19.886Z,12.79
2023-05-12T00:31:19.667Z,12.77
2023-05-12T00:32:19.604Z,12.75
2023-05-12T00:33:19.609Z,12.75
2023-05-12T00:34:21.361Z,12.75
2023-05-12T00:35:19.859Z,12.78
2023-05-12T00:36:22.311Z,12.83
2023-05-12T00:37:22.380Z,12.85
2023-05-12T00:38:19.503Z,12.82
2023-05-12T00:39:19.501Z,12.78
2023-05-12T00:40:19.588Z,12.75
2023-05-12T00:41:19.490Z,12.77
2023-05-12T00:42:19.451Z,12.75
2023-05-12T00:43:19.458Z,12.74
2023-05-12T00:44:19.444Z,12.74
2023-05-12T00:45:19.433Z,12.72
2023-05-12T00:46:19.461Z,12.70
2023-05-12T00:47:19.403Z,12.68
2023-05-12T00:48:27.394Z,12.68
2023-05-12T00:49:26.414Z,12.70
2023-05-12T00:50:27.374Z,12.70
2023-05-12T00:51:27.882Z,12.70
2023-05-12T00:52:26.894Z,12.70
2023-05-12T00:53:32.688Z,12.68
2023-05-12T00:54:20.323Z,12.68
2023-05-12T00:55:19.304Z,12.67
2023-05-12T00:56:19.326Z,12.70
2023-05-12T00:57:19.314Z,12.71
2023-05-12T00:58:19.290Z,12.74
2023-05-12T00:59:19.292Z,12.74
2023-05-12T01:00:20.171Z,12.72
2023-05-12T01:01:19.328Z,12.75
2023-05-12T01:02:19.261Z,12.72
2023-05-12T01:03:19.298Z,12.75
2023-05-12T01:04:19.218Z,12.75
2023-05-12T01:05:19.236Z,12.77
2023-05-12T01:06:19.205Z,12.77
2023-05-12T01:07:19.251Z,12.79
2023-05-12T01:08:19.213Z,12.77
2023-05-12T01:09:19.171Z,12.75
2023-05-12T01:10:19.402Z,12.75
2023-05-12T01:11:19.474Z,12.74
2023-05-12T01:12:19.135Z,12.78
2023-05-12T01:13:19.106Z,12.78
2023-05-12T01:14:19.094Z,12.77
2023-05-12T01:15:19.110Z,12.74
2023-05-12T01:16:19.087Z,12.74
2023-05-12T01:17:19.117Z,12.71
2023-05-12T01:18:19.120Z,12.70
2023-05-12T01:19:19.109Z,12.65
2023-05-12T01:20:19.292Z,12.67
2023-05-12T01:21:19.097Z,12.67
2023-05-12T01:22:19.003Z,12.70
2023-05-12T01:23:19.015Z,12.71
2023-05-12T01:24:18.993Z,12.75
2023-05-12T01:25:19.008Z,12.71
2023-05-12T01:26:18.962Z,12.68
2023-05-12T01:27:19.017Z,12.68
2023-05-12T01:28:18.956Z,12.65
2023-05-12T01:29:18.945Z,12.62
2023-05-12T01:30:19.256Z,12.64
2023-05-12T01:31:21.112Z,12.65
2023-05-12T01:32:18.960Z,12.65
2023-05-12T01:33:18.900Z,12.64
2023-05-12T01:34:18.879Z,12.60
2023-05-12T01:35:18.887Z,12.59
2023-05-12T01:36:18.846Z,12.57
2023-05-12T01:37:18.854Z,12.59
2023-05-12T01:38:18.838Z,12.62
2023-05-12T01:39:18.838Z,12.64
2023-05-12T01:40:19.099Z,12.60
2023-05-12T01:41:18.776Z,12.60
2023-05-12T01:42:18.773Z,12.60
2023-05-12T01:43:20.865Z,12.57
2023-05-12T01:44:18.874Z,12.56
2023-05-12T01:45:18.746Z,12.54
2023-05-12T01:46:18.839Z,12.59
2023-05-12T01:47:18.736Z,12.60
2023-05-12T01:48:18.730Z,12.64
2023-05-12T01:49:18.746Z,12.67
2023-05-12T01:50:18.905Z,12.70
2023-05-12T01:51:18.677Z,12.68
2023-05-12T01:52:18.713Z,12.68
2023-05-12T01:53:18.687Z,12.67
2023-05-12T01:54:18.652Z,12.68
2023-05-12T01:55:18.665Z,12.67
2023-05-12T01:56:18.631Z,12.65
2023-05-12T01:57:19.625Z,12.62
2023-05-12T01:58:18.638Z,12.64
2023-05-12T01:59:18.637Z,12.64
2023-05-12T02:00:18.801Z,12.68
2023-05-12T02:01:18.662Z,12.67
2023-05-12T02:02:18.586Z,12.67
2023-05-12T02:03:18.627Z,12.68
2023-05-12T02:04:18.580Z,12.70
2023-05-12T02:05:18.536Z,12.70
2023-05-12T02:06:18.522Z,12.68
2023-05-12T02:07:18.534Z,12.68
2023-05-12T02:08:18.496Z,12.68
2023-05-12T02:09:18.508Z,12.68
2023-05-12T02:10:18.907Z,12.71
2023-05-12T02:11:18.443Z,12.74
2023-05-12T02:12:18.458Z,12.74
2023-05-12T02:13:18.456Z,12.71
2023-05-12T02:14:18.445Z,12.68
2023-05-12T02:15:18.425Z,12.68
2023-05-12T02:16:18.451Z,12.68
2023-05-12T02:17:18.392Z,12.71
2023-05-12T02:18:18.394Z,12.70
2023-05-12T02:19:18.419Z,12.70
2023-05-12T02:20:18.924Z,12.71
2023-05-12T02:21:18.402Z,12.71
2023-05-12T02:22:18.341Z,12.74
2023-05-12T02:23:18.354Z,12.75
2023-05-12T02:24:18.322Z,12.75
2023-05-12T02:25:18.315Z,12.74
2023-05-12T02:26:18.308Z,12.72
2023-05-12T02:27:18.282Z,12.70
2023-05-12T02:28:18.258Z,12.70
2023-05-12T02:29:18.264Z,12.67
2023-05-12T02:30:18.451Z,12.67
2023-05-12T02:31:18.301Z,12.70
2023-05-12T02:32:18.270Z,12.70
2023-05-12T02:33:18.201Z,12.72
2023-05-12T02:34:18.212Z,12.71
2023-05-12T02:35:18.249Z,12.71
2023-05-12T02:36:18.239Z,12.68
2023-05-12T02:37:18.190Z,12.68
2023-05-12T02:38:18.187Z,12.68
2023-05-12T02:39:18.156Z,12.70
2023-05-12T02:40:18.404Z,12.70
2023-05-12T02:41:18.173Z,12.67
2023-05-12T02:42:18.122Z,12.67
2023-05-12T02:43:26.129Z,12.70
2023-05-12T02:44:25.438Z,12.71
2023-05-12T02:45:26.424Z,12.72
2023-05-12T02:46:26.286Z,12.71
2023-05-12T02:47:25.641Z,12.70
2023-05-12T02:48:18.090Z,12.70
2023-05-12T02:49:18.075Z,12.68
2023-05-12T02:50:18.139Z,12.68
2023-05-12T02:51:18.024Z,12.70
2023-05-12T02:52:18.026Z,12.65
2023-05-12T02:53:18.033Z,12.59
2023-05-12T02:54:17.989Z,12.56
2023-05-12T02:55:18.014Z,12.57
2023-05-12T02:56:18.000Z,12.59
2023-05-12T02:57:17.931Z,12.60
2023-05-12T02:58:17.985Z,12.64
2023-05-12T02:59:17.964Z,12.64
2023-05-12T03:00:17.999Z,12.64
2023-05-12T03:01:17.921Z,12.64
2023-05-12T03:02:17.944Z,12.67
2023-05-12T03:03:17.976Z,12.65
2023-05-12T03:04:17.909Z,12.70
2023-05-12T03:05:17.908Z,12.72
2023-05-12T03:06:17.855Z,12.74
2023-05-12T03:07:17.838Z,12.77
2023-05-12T03:08:17.837Z,12.78
2023-05-12T03:09:17.826Z,12.79
2023-05-12T03:10:17.981Z,12.75
2023-05-12T03:11:17.800Z,12.74
2023-05-12T03:12:17.801Z,12.72
2023-05-12T03:13:17.779Z,12.71
2023-05-12T03:14:17.749Z,12.71
2023-05-12T03:15:17.764Z,12.70
2023-05-12T03:16:19.477Z,12.68
2023-05-12T03:17:17.858Z,12.68
2023-05-12T03:18:17.710Z,12.67
2023-05-12T03:19:17.692Z,12.67
2023-05-12T03:20:17.923Z,12.67
2023-05-12T03:21:17.708Z,12.70
2023-05-12T03:22:17.690Z,12.71
2023-05-12T03:23:17.687Z,12.71
2023-05-12T03:24:17.685Z,12.71
2023-05-12T03:25:17.616Z,12.72
2023-05-12T03:26:17.611Z,12.72
2023-05-12T03:27:17.615Z,12.71
2023-05-12T03:28:17.600Z,12.71
2023-05-12T03:29:17.577Z,12.70
2023-05-12T03:30:17.768Z,12.68
2023-05-12T03:31:17.554Z,12.67
2023-05-12T03:32:17.554Z,12.68
2023-05-12T03:33:17.552Z,12.71
2023-05-12T03:34:17.531Z,12.71
2023-05-12T03:35:17.507Z,12.70
2023-05-12T03:36:17.538Z,12.68
2023-05-12T03:37:17.492Z,12.67
2023-05-12T03:38:17.509Z,12.70
2023-05-12T03:39:17.488Z,12.70
2023-05-12T03:40:17.602Z,12.70
2023-05-12T03:41:17.482Z,12.68
2023-05-12T03:42:17.438Z,12.67
2023-05-12T03:43:17.466Z,12.67
2023-05-12T03:44:17.422Z,12.65
2023-05-12T03:45:17.409Z,12.65
2023-05-12T03:46:17.476Z,12.67
2023-05-12T03:47:17.478Z,12.67
2023-05-12T03:48:17.406Z,12.67
2023-05-12T03:49:17.418Z,12.67
2023-05-12T03:50:17.503Z,12.72
2023-05-12T03:51:17.367Z,12.74
2023-05-12T03:52:17.519Z,12.75
2023-05-12T03:53:17.322Z,12.75
2023-05-12T03:54:17.316Z,12.77
2023-05-12T03:55:17.322Z,12.74
2023-05-12T03:56:17.276Z,12.77
2023-05-12T03:57:17.264Z,12.78
2023-05-12T03:58:17.565Z,12.78
2023-05-12T03:59:17.582Z,12.75
2023-05-12T04:00:17.351Z,12.71
2023-05-12T04:01:17.231Z,12.67
2023-05-12T04:02:17.650Z,12.65
2023-05-12T04:03:17.370Z,12.67
2023-05-12T04:04:17.251Z,12.68
2023-05-12T04:05:17.244Z,12.68
2023-05-12T04:06:17.222Z,12.70
2023-05-12T04:07:17.161Z,12.68
2023-05-12T04:08:17.177Z,12.68
2023-05-12T04:09:17.139Z,12.68
2023-05-12T04:10:17.206Z,12.70
2023-05-12T04:11:17.149Z,12.70
2023-05-12T04:12:17.119Z,12.72
2023-05-12T04:13:17.152Z,12.74
2023-05-12T04:14:17.078Z,12.75
2023-05-12T04:15:17.090Z,12.75
2023-05-12T04:16:17.468Z,12.75
2023-05-12T04:17:17.095Z,12.75
2023-05-12T04:18:17.106Z,12.74
2023-05-12T04:19:17.040Z,12.74
2023-05-12T04:20:17.018Z,12.72
2023-05-12T04:21:17.069Z,12.72
2023-05-12T04:22:17.088Z,12.71
2023-05-12T04:23:17.022Z,12.70
2023-05-12T04:24:17.011Z,12.71
2023-05-12T04:25:16.950Z,12.71
2023-05-12T04:26:17.001Z,12.71
2023-05-12T04:27:16.947Z,12.70
2023-05-12T04:28:16.941Z,12.71
2023-05-12T04:29:16.925Z,12.71
2023-05-12T04:30:16.918Z,12.74
2023-05-12T04:31:16.896Z,12.75
2023-05-12T04:32:17.022Z,12.77
2023-05-12T04:33:16.877Z,12.77
2023-05-12T04:34:24.717Z,12.78
2023-05-12T04:35:25.422Z,12.78
2023-05-12T04:36:23.859Z,12.79
2023-05-12T04:37:28.784Z,12.79
2023-05-12T04:38:26.654Z,12.82
2023-05-12T04:39:24.825Z,12.83
2023-05-12T04:40:24.838Z,12.83
2023-05-12T04:41:16.796Z,12.82
2023-05-12T04:42:16.781Z,12.79
2023-05-12T04:44:16.774Z,12.79
2023-05-12T04:45:16.769Z,12.79
2023-05-12T04:46:16.800Z,12.82
2023-05-12T04:47:16.699Z,12.83
2023-05-12T04:48:20.580Z,12.85
2023-05-12T04:49:16.681Z,12.87
2023-05-12T04:50:16.994Z,12.87
2023-05-12T04:51:16.681Z,12.89
2023-05-12T04:52:16.652Z,12.92
2023-05-12T04:53:16.682Z,12.92
2023-05-12T04:54:17.829Z,12.93
2023-05-12T04:55:16.627Z,12.93
2023-05-12T04:56:16.662Z,12.95
2023-05-12T04:57:16.609Z,12.93
2023-05-12T04:58:16.606Z,12.92
2023-05-12T04:59:16.662Z,12.89
2023-05-12T05:00:16.591Z,12.92
2023-05-12T05:01:16.936Z,12.93
2023-05-12T05:02:17.274Z,12.95
2023-05-12T05:03:16.667Z,12.97
2023-05-12T05:04:16.548Z,12.97
2023-05-12T05:05:16.548Z,12.97
2023-05-12T05:06:16.582Z,12.95
2023-05-12T05:07:16.494Z,12.95
2023-05-12T05:08:16.512Z,12.95
2023-05-12T05:09:17.216Z,12.93
2023-05-12T05:10:16.456Z,12.93
2023-05-12T05:11:16.490Z,12.95
2023-05-12T05:12:16.427Z,12.97
2023-05-12T05:13:19.215Z,12.97
2023-05-12T05:15:26.793Z,13.01
2023-05-12T05:16:26.529Z,13.01
2023-05-12T05:17:26.513Z,13.03
2023-05-12T05:18:27.275Z,13.04
2023-05-12T05:19:39.327Z,13.08
2023-05-12T05:20:29.111Z,13.10
2023-05-12T05:21:28.134Z,13.12
2023-05-12T05:22:26.725Z,13.12
2023-05-12T05:23:26.437Z,13.14
2023-05-12T05:24:26.369Z,13.15
2023-05-12T05:25:26.406Z,13.14
2023-05-12T05:26:26.341Z,13.12
2023-05-12T05:27:26.377Z,13.12
2023-05-12T05:28:26.321Z,13.08
2023-05-12T05:29:26.366Z,13.05
2023-05-12T05:30:26.289Z,13.08
2023-05-12T05:31:26.608Z,13.08
2023-05-12T05:32:26.326Z,13.07
2023-05-12T05:33:30.025Z,13.00
2023-05-12T05:34:26.312Z,12.97
2023-05-12T05:35:28.235Z,12.95
2023-05-12T05:36:26.281Z,12.95
2023-05-12T05:37:26.653Z,12.92
2023-05-12T05:38:27.829Z,12.90
2023-05-12T05:39:26.205Z,12.87
2023-05-12T05:40:26.167Z,12.87
2023-05-12T05:41:26.186Z,12.89
2023-05-12T05:42:26.159Z,12.89
2023-05-12T05:43:26.220Z,12.89
2023-05-12T05:44:26.123Z,12.92
2023-05-12T05:45:28.086Z,12.92
2023-05-12T05:46:26.149Z,12.95
2023-05-12T05:47:26.221Z,12.95
2023-05-12T05:48:26.115Z,12.93
2023-05-12T05:49:27.905Z,12.92
2023-05-12T05:50:26.394Z,12.87
2023-05-12T05:51:26.076Z,12.82
2023-05-12T05:52:26.110Z,12.82
2023-05-12T05:53:26.056Z,12.78
2023-05-12T05:54:26.008Z,12.75
2023-05-12T05:55:26.004Z,12.77
2023-05-12T05:56:25.999Z,12.78
2023-05-12T05:57:26.066Z,12.79
2023-05-12T05:58:25.986Z,12.90
2023-05-12T05:59:25.965Z,12.90
2023-05-12T06:00:26.695Z,12.83
2023-05-12T06:01:26.253Z,12.78
2023-05-12T06:02:26.008Z,12.79
2023-05-12T06:03:25.978Z,12.83
2023-05-12T06:04:27.701Z,12.83
2023-05-12T06:05:25.913Z,12.85
2023-05-12T06:06:25.914Z,12.89
2023-05-12T06:07:25.885Z,12.89
2023-05-12T06:08:26.142Z,12.85
2023-05-12T06:09:25.867Z,12.79
2023-05-12T06:10:25.931Z,12.82
2023-05-12T06:11:25.856Z,12.86
2023-05-12T06:12:25.804Z,12.90
2023-05-12T06:13:25.775Z,12.90
2023-05-12T06:14:25.819Z,12.95
2023-05-12T06:15:25.837Z,12.96
2023-05-12T06:16:25.820Z,12.95
2023-05-12T06:17:25.783Z,12.95
2023-05-12T06:18:25.813Z,12.96
2023-05-12T06:19:25.731Z,13.01
2023-05-12T06:20:25.740Z,13.05
2023-05-12T06:21:25.721Z,13.07
2023-05-12T06:22:25.767Z,13.10
2023-05-12T06:23:25.746Z,13.12
2023-05-12T06:24:25.710Z,13.14
2023-05-12T06:25:25.690Z,13.15
2023-05-12T06:26:25.682Z,13.14
2023-05-12T06:27:25.933Z,13.12
2023-05-12T06:28:25.656Z,13.14
2023-05-12T06:29:25.595Z,13.11
2023-05-12T06:30:33.763Z,13.10
2023-05-12T06:31:32.727Z,13.10
2023-05-12T06:32:34.650Z,13.15
2023-05-12T06:33:33.387Z,13.22
2023-05-12T06:34:35.589Z,13.25
2023-05-12T06:35:25.541Z,13.26
2023-05-12T06:36:25.572Z,13.25
2023-05-12T06:37:25.531Z,13.23
2023-05-12T06:38:25.505Z,13.20
2023-05-12T06:39:25.524Z,13.23
2023-05-12T06:40:25.495Z,13.23
2023-05-12T06:41:25.497Z,13.28
2023-05-12T06:42:25.496Z,13.30
2023-05-12T06:43:25.513Z,13.33
2023-05-12T06:44:25.470Z,13.39
2023-05-12T06:45:25.470Z,13.46
2023-05-12T06:46:25.508Z,13.52
2023-05-12T06:47:25.437Z,13.62
2023-05-12T06:48:25.427Z,13.66
2023-05-12T06:49:25.424Z,13.66
2023-05-12T06:50:25.397Z,13.67
2023-05-12T06:51:25.391Z,13.69
2023-05-12T06:52:25.362Z,13.69
2023-05-12T06:53:25.695Z,13.71
2023-05-12T06:54:25.339Z,13.77
2023-05-12T06:55:25.479Z,13.84
2023-05-12T06:56:29.328Z,13.91
2023-05-12T06:57:25.368Z,14.00
2023-05-12T06:58:25.322Z,14.04
2023-05-12T06:59:25.326Z,14.09
2023-05-12T07:00:25.319Z,14.15
2023-05-12T07:01:25.391Z,14.15
2023-05-12T07:02:25.276Z,14.17
2023-05-12T07:03:25.380Z,14.18
2023-05-12T07:04:26.510Z,14.22
2023-05-12T07:05:25.455Z,14.27
2023-05-12T07:06:25.237Z,14.22
2023-05-12T07:07:25.386Z,14.24
2023-05-12T07:08:25.171Z,14.24
2023-05-12T07:09:25.179Z,14.25
2023-05-12T07:10:25.249Z,14.27
2023-05-12T07:11:25.173Z,14.28
2023-05-12T07:12:25.111Z,14.25
2023-05-12T07:13:25.100Z,14.24
2023-05-12T07:14:25.110Z,14.28
2023-05-12T07:15:25.142Z,14.22
2023-05-12T07:16:25.117Z,14.32
2023-05-12T07:17:25.085Z,14.39
2023-05-12T07:18:25.111Z,14.54
2023-05-12T07:19:25.054Z,14.60
2023-05-12T07:20:25.050Z,14.60
2023-05-12T07:21:25.021Z,14.65
2023-05-12T07:22:25.030Z,14.70
2023-05-12T07:23:25.027Z,14.70
2023-05-12T07:24:24.992Z,14.77
2023-05-12T07:25:25.077Z,14.81
2023-05-12T07:26:24.979Z,14.86
2023-05-12T07:27:24.976Z,14.89
2023-05-12T07:28:24.966Z,14.81
2023-05-12T07:29:24.952Z,14.78
2023-05-12T07:30:24.929Z,14.83
2023-05-12T07:31:25.223Z,14.80
2023-05-12T07:32:24.935Z,14.80
2023-05-12T07:33:24.893Z,14.83
2023-05-12T07:34:24.878Z,14.88
2023-05-12T07:35:24.896Z,14.96
2023-05-12T07:36:27.583Z,14.96
2023-05-12T07:37:24.856Z,14.84
2023-05-12T07:38:24.833Z,14.86
2023-05-12T07:39:24.807Z,14.80
2023-05-12T07:40:24.839Z,14.72
2023-05-12T07:41:24.788Z,14.68
2023-05-12T07:42:24.799Z,14.64
2023-05-12T07:43:24.815Z,14.69
2023-05-12T07:44:24.790Z,14.65
2023-05-12T07:45:24.779Z,14.73
2023-05-12T07:46:24.794Z,14.81
2023-05-12T07:47:24.770Z,14.89
2023-05-12T07:48:24.710Z,14.96
2023-05-12T07:49:24.745Z,14.94
2023-05-12T07:50:24.717Z,15.02
2023-05-12T07:51:24.657Z,15.09
2023-05-12T07:52:24.717Z,15.13
2023-05-12T07:53:24.649Z,15.07
2023-05-12T07:54:24.639Z,15.10
2023-05-12T07:55:25.395Z,15.02
2023-05-12T07:56:24.646Z,15.03
2023-05-12T07:57:24.607Z,15.11
2023-05-12T07:58:24.611Z,15.19
2023-05-12T07:59:24.603Z,15.21
2023-05-12T08:00:24.618Z,15.20
2023-05-12T08:01:24.591Z,15.27
2023-05-12T08:02:24.612Z,15.39
2023-05-12T08:03:24.566Z,15.43
2023-05-12T08:04:24.602Z,15.50
2023-05-12T08:05:24.534Z,15.50
2023-05-12T08:06:24.959Z,15.51
2023-05-12T08:07:24.505Z,15.59
2023-05-12T08:08:24.510Z,15.60
2023-05-12T08:09:24.457Z,15.65
2023-05-12T08:10:24.864Z,15.64
2023-05-12T08:11:24.440Z,15.64
2023-05-12T08:12:24.440Z,15.53
2023-05-12T08:13:24.424Z,15.51
2023-05-12T08:14:24.450Z,15.57
2023-05-12T08:15:24.453Z,15.62
2023-05-12T08:16:24.392Z,15.67
2023-05-12T08:17:27.035Z,15.78
2023-05-12T08:18:24.417Z,15.89
2023-05-12T08:19:24.451Z,15.92
2023-05-12T08:20:24.390Z,16.05
2023-05-12T08:21:31.882Z,16.20
2023-05-12T08:22:24.308Z,16.30
2023-05-12T08:23:31.848Z,16.30
2023-05-12T08:24:24.364Z,16.42
2023-05-12T08:25:33.159Z,16.56
2023-05-12T08:26:24.258Z,16.41
2023-05-12T08:27:32.142Z,16.53
2023-05-12T08:28:24.291Z,16.58
2023-05-12T08:29:24.276Z,16.63
2023-05-12T08:30:24.231Z,16.73
2023-05-12T08:31:24.258Z,16.79
2023-05-12T08:32:24.209Z,16.82
2023-05-12T08:33:24.199Z,16.78
2023-05-12T08:34:24.190Z,16.79
2023-05-12T08:35:24.176Z,16.82
2023-05-12T08:36:24.160Z,16.75
2023-05-12T08:37:24.147Z,16.66
2023-05-12T08:38:24.135Z,16.53
2023-05-12T08:39:24.119Z,16.27
2023-05-12T08:40:24.212Z,16.33
2023-05-12T08:41:24.088Z,16.33
2023-05-12T08:42:24.079Z,16.27
2023-05-12T08:43:24.138Z,16.25
2023-05-12T08:44:24.087Z,16.23
2023-05-12T08:45:24.097Z,16.14
2023-05-12T08:46:24.129Z,16.15
2023-05-12T08:47:24.079Z,16.09
2023-05-12T08:48:24.035Z,16.12
2023-05-12T08:49:24.045Z,16.20
2023-05-12T08:50:24.029Z,16.14
2023-05-12T08:51:24.004Z,16.12
2023-05-12T08:52:24.001Z,16.07
2023-05-12T08:53:23.968Z,15.94
2023-05-12T08:54:23.994Z,15.93
2023-05-12T08:55:30.844Z,15.96
2023-05-12T08:57:23.940Z,16.14
2023-05-12T08:58:33.984Z,16.17
2023-05-12T08:59:25.037Z,16.15
2023-05-12T09:00:24.036Z,16.14
2023-05-12T09:01:23.927Z,16.21
2023-05-12T09:02:24.382Z,16.20
2023-05-12T09:03:23.872Z,16.15
2023-05-12T09:04:23.891Z,16.17
2023-05-12T09:05:23.950Z,16.11
2023-05-12T09:06:23.852Z,16.20
2023-05-12T09:07:23.842Z,16.25
2023-05-12T09:08:23.793Z,16.28
2023-05-12T09:09:23.786Z,16.34
2023-05-12T09:10:33.754Z,16.38
2023-05-12T09:11:24.789Z,16.45
2023-05-12T09:12:23.802Z,16.46
2023-05-12T09:13:23.761Z,16.43
2023-05-12T09:14:23.757Z,16.49
2023-05-12T09:15:23.747Z,16.56
2023-05-12T09:16:23.866Z,16.60
2023-05-12T09:17:23.725Z,16.67
2023-05-12T09:18:23.707Z,16.76
2023-05-12T09:19:23.684Z,16.85
2023-05-12T09:20:30.946Z,16.85
2023-05-12T09:21:24.663Z,16.91
2023-05-12T09:22:23.681Z,16.86
2023-05-12T09:23:23.642Z,16.86
2023-05-12T09:24:23.643Z,16.88
2023-05-12T09:25:23.613Z,16.97
2023-05-12T09:26:23.637Z,17.18
2023-05-12T09:27:23.590Z,17.36
2023-05-12T09:28:23.590Z,17.43
2023-05-12T09:29:30.859Z,17.58
2023-05-12T09:30:24.560Z,17.72
2023-05-12T09:31:23.595Z,17.75
2023-05-12T09:32:23.650Z,17.84
2023-05-12T09:33:23.550Z,18.00
2023-05-12T09:34:23.525Z,18.21
2023-05-12T09:35:23.786Z,18.33
2023-05-12T09:36:23.515Z,18.21
2023-05-12T09:37:23.495Z,18.29
2023-05-12T09:38:23.485Z,18.11
2023-05-12T09:39:23.476Z,18.20
2023-05-12T09:40:23.441Z,18.39
2023-05-12T09:41:23.483Z,18.42
2023-05-12T09:42:23.428Z,18.32
2023-05-12T09:43:23.420Z,18.26
2023-05-12T09:44:23.464Z,18.35
2023-05-12T09:45:23.387Z,18.48
2023-05-12T09:46:23.418Z,18.66
2023-05-12T09:47:23.476Z,18.84
2023-05-12T09:48:24.914Z,19.02
2023-05-12T09:49:23.332Z,19.04
2023-05-12T09:50:23.356Z,19.13
2023-05-12T09:51:23.310Z,19.13
2023-05-12T09:52:23.320Z,18.98
2023-05-12T09:53:23.340Z,19.02
2023-05-12T09:54:23.271Z,18.98
2023-05-12T09:55:24.013Z,18.98
2023-05-12T09:56:23.307Z,18.80
2023-05-12T09:57:23.275Z,18.75
2023-05-12T09:58:23.226Z,18.78
2023-05-12T09:59:23.238Z,18.84
2023-05-12T10:00:38.619Z,18.88
2023-05-12T10:01:24.457Z,18.98
2023-05-12T10:02:23.231Z,19.08
2023-05-12T10:03:23.190Z,19.19
2023-05-12T10:04:23.238Z,19.31
2023-05-12T10:05:23.343Z,19.41
2023-05-12T10:06:23.162Z,19.43
2023-05-12T10:07:23.140Z,19.39
2023-05-12T10:08:23.116Z,19.26
2023-05-12T10:09:23.117Z,19.14
2023-05-12T10:10:25.009Z,18.94
2023-05-12T10:11:23.090Z,18.95
2023-05-12T10:12:23.072Z,19.07
2023-05-12T10:13:23.048Z,19.13
2023-05-12T10:14:23.112Z,19.11
2023-05-12T10:15:23.043Z,18.91
2023-05-12T10:16:31.843Z,18.88
2023-05-12T10:17:23.019Z,18.98
2023-05-12T10:18:30.047Z,19.06
2023-05-12T10:19:30.550Z,19.10
2023-05-12T10:20:31.490Z,19.16
2023-05-12T10:21:30.047Z,19.16
2023-05-12T10:22:22.937Z,19.23
2023-05-12T10:23:22.944Z,19.18
2023-05-12T10:24:22.966Z,19.14
2023-05-12T10:25:23.097Z,19.06
2023-05-12T10:26:22.910Z,19.10
2023-05-12T10:27:22.921Z,19.14
2023-05-12T10:28:22.885Z,19.08
2023-05-12T10:29:22.860Z,19.14
2023-05-12T10:30:23.638Z,19.23
2023-05-12T10:31:22.982Z,19.18
2023-05-12T10:32:22.858Z,19.11
2023-05-12T10:33:22.830Z,19.06
2023-05-12T10:34:22.844Z,18.91
2023-05-12T10:35:23.093Z,18.92
2023-05-12T10:36:22.794Z,18.99
2023-05-12T10:37:22.782Z,18.88
2023-05-12T10:38:22.774Z,18.91
2023-05-12T10:39:22.778Z,18.98
2023-05-12T10:40:23.503Z,18.99
2023-05-12T10:41:22.732Z,19.07
2023-05-12T10:42:22.727Z,19.18
2023-05-12T10:43:22.750Z,19.21
2023-05-12T10:44:22.712Z,19.08
2023-05-12T10:45:22.999Z,19.06
2023-05-12T10:46:22.743Z,19.07
2023-05-12T10:47:22.672Z,19.21
2023-05-12T10:48:22.668Z,19.32
2023-05-12T10:49:22.657Z,19.41
2023-05-12T10:50:22.634Z,19.50
2023-05-12T10:51:22.626Z,19.58
2023-05-12T10:52:22.634Z,19.62
2023-05-12T10:53:22.606Z,19.55
2023-05-12T10:54:22.576Z,19.59
2023-05-12T10:55:22.834Z,19.73
2023-05-12T10:56:22.812Z,19.80
2023-05-12T10:57:23.084Z,19.80
2023-05-12T10:58:22.776Z,19.80
2023-05-12T10:59:23.156Z,19.78
2023-05-12T11:00:23.314Z,19.71
2023-05-12T11:01:23.095Z,19.61
2023-05-12T11:02:23.582Z,19.48
2023-05-12T11:03:23.722Z,19.47
2023-05-12T11:04:22.665Z,19.40
2023-05-12T11:05:22.709Z,19.36
2023-05-12T11:06:28.913Z,19.14
2023-05-12T11:07:22.773Z,19.08
2023-05-12T11:08:23.343Z,18.99
2023-05-12T11:09:22.646Z,18.99
2023-05-12T11:10:22.670Z,19.06
2023-05-12T11:11:22.615Z,19.19
2023-05-12T11:12:22.411Z,19.21
2023-05-12T11:13:22.411Z,19.11
2023-05-12T11:14:22.376Z,19.02
2023-05-12T11:15:22.710Z,18.92
2023-05-12T11:16:22.467Z,18.95
2023-05-12T11:17:22.574Z,18.98
2023-05-12T11:18:22.361Z,18.99
2023-05-12T11:19:22.328Z,18.95
2023-05-12T11:20:23.043Z,18.98
2023-05-12T11:21:22.293Z,19.02
2023-05-12T11:22:22.265Z,19.08
2023-05-12T11:23:22.268Z,19.10
2023-05-12T11:24:22.257Z,19.10
2023-05-12T11:25:23.337Z,18.91
2023-05-12T11:26:22.992Z,18.90
2023-05-12T11:27:22.218Z,18.94
2023-05-12T11:28:22.205Z,19.00
2023-05-12T11:29:22.209Z,19.16
2023-05-12T11:30:22.955Z,19.32
2023-05-12T11:31:22.315Z,19.48
2023-05-12T11:32:22.199Z,19.65
2023-05-12T11:33:22.166Z,19.58
2023-05-12T11:34:22.139Z,19.48
2023-05-12T11:35:22.538Z,19.43
2023-05-12T11:36:22.129Z,19.50
2023-05-12T11:37:22.096Z,19.66
2023-05-12T11:38:22.120Z,19.63
2023-05-12T11:39:22.097Z,19.74
2023-05-12T11:40:22.096Z,19.88
2023-05-12T11:41:22.051Z,19.99
2023-05-12T11:42:24.421Z,20.08
2023-05-12T11:43:22.023Z,20.16
2023-05-12T11:44:22.035Z,20.28
2023-05-12T11:45:22.272Z,20.26
2023-05-12T11:46:22.114Z,20.32
2023-05-12T11:47:22.031Z,20.38
2023-05-12T11:48:22.004Z,20.51
2023-05-12T11:49:21.985Z,20.55
2023-05-12T11:50:21.959Z,20.72
2023-05-12T11:51:21.962Z,20.79
2023-05-12T11:52:21.931Z,20.42
2023-05-12T11:53:21.906Z,20.38
2023-05-12T11:54:21.971Z,20.42
2023-05-12T11:55:22.031Z,20.38
2023-05-12T11:56:21.883Z,20.23
2023-05-12T11:57:22.644Z,20.16
2023-05-12T11:58:21.918Z,20.08
2023-05-12T11:59:21.855Z,20.10
2023-05-12T12:00:21.846Z,19.99
2023-05-12T12:01:21.838Z,19.99
2023-05-12T12:02:21.899Z,19.80
2023-05-12T12:03:21.955Z,19.73
2023-05-12T12:04:21.861Z,19.76
2023-05-12T12:05:22.065Z,19.84
2023-05-12T12:06:21.825Z,19.94
2023-05-12T12:07:21.764Z,19.96
2023-05-12T12:08:21.764Z,20.01
2023-05-12T12:09:28.753Z,20.03
2023-05-12T12:10:21.842Z,20.13
2023-05-12T12:11:28.734Z,20.18
2023-05-12T12:12:30.003Z,20.28
2023-05-12T12:13:21.698Z,20.41
2023-05-12T12:14:29.700Z,20.52
2023-05-12T12:15:28.710Z,20.61
2023-05-12T12:16:21.772Z,20.67
2023-05-12T12:17:23.569Z,20.54
2023-05-12T12:18:21.706Z,20.47
2023-05-12T12:19:21.632Z,20.36
2023-05-12T12:20:21.614Z,20.32
2023-05-12T12:21:21.624Z,20.26
2023-05-12T12:22:21.620Z,20.18
2023-05-12T12:23:21.575Z,20.21
2023-05-12T12:24:21.567Z,20.36
2023-05-12T12:25:21.797Z,20.50
2023-05-12T12:26:21.766Z,20.57
2023-05-12T12:27:21.548Z,20.54
2023-05-12T12:28:21.551Z,20.59
2023-05-12T12:29:21.501Z,20.57
2023-05-12T12:30:21.537Z,20.57
2023-05-12T12:31:21.537Z,20.50
2023-05-12T12:32:21.505Z,20.42
2023-05-12T12:33:21.533Z,20.35
2023-05-12T12:34:21.468Z,20.18
2023-05-12T12:35:21.669Z,20.14
2023-05-12T12:36:21.545Z,20.16
2023-05-12T12:37:21.432Z,20.08
2023-05-12T12:38:21.421Z,20.05
2023-05-12T12:39:21.392Z,20.02
2023-05-12T12:40:21.433Z,19.92
2023-05-12T12:41:21.391Z,19.81
2023-05-12T12:42:21.377Z,19.78
2023-05-12T12:43:21.367Z,19.74
2023-05-12T12:44:21.400Z,19.81
2023-05-12T12:45:21.584Z,19.83
2023-05-12T12:46:21.364Z,19.88
2023-05-12T12:47:21.337Z,19.99
2023-05-12T12:48:21.297Z,20.02
2023-05-12T12:49:21.329Z,20.10
2023-05-12T12:50:21.303Z,20.17
2023-05-12T12:51:21.264Z,20.26
2023-05-12T12:52:21.272Z,20.32
2023-05-12T12:53:21.246Z,20.26
2023-05-12T12:54:21.248Z,20.35
2023-05-12T12:55:21.409Z,20.43